createdAt,value
2022-11-24T00:00:12.380Z,998.02
2022-11-24T00:01:12.067Z,998.07
2022-11-24T00:04:18.464Z,998.00
2022-11-24T00:05:17.185Z,998.00
2022-11-24T00:06:16.496Z,998.04
2022-11-24T00:07:17.616Z,998.04
2022-11-24T00:08:32.726Z,998.07
2022-11-24T00:09:17.040Z,998.04
2022-11-24T00:11:49.258Z,998.04
2022-11-24T00:12:50.152Z,998.06
2022-11-24T00:13:48.341Z,998.08
2022-11-24T00:14:48.542Z,998.08
2022-11-24T00:15:48.070Z,998.10
2022-11-24T00:16:51.295Z,998.10
2022-11-24T00:17:48.829Z,998.10
2022-11-24T00:18:49.574Z,998.09
2022-11-24T00:19:48.173Z,998.17
2022-11-24T00:20:49.942Z,998.19
2022-11-24T00:21:47.925Z,998.22
2022-11-24T00:22:47.962Z,998.18
2022-11-24T00:23:47.953Z,998.17
2022-11-24T00:24:48.264Z,998.22
2022-11-24T00:25:48.881Z,998.22
2022-11-24T00:26:47.883Z,998.20
2022-11-24T00:27:48.304Z,998.25
2022-11-24T00:28:48.094Z,998.25
2022-11-24T00:29:48.075Z,998.27
2022-11-24T00:30:48.511Z,998.25
2022-11-24T00:31:48.016Z,998.28
2022-11-24T00:32:48.105Z,998.27
2022-11-24T00:33:47.928Z,998.32
2022-11-24T00:34:49.035Z,998.29
2022-11-24T00:35:49.200Z,998.29
2022-11-24T00:36:48.255Z,998.31
2022-11-24T00:37:50.050Z,998.31
2022-11-24T00:38:47.796Z,998.31
2022-11-24T00:39:47.625Z,998.35
2022-11-24T00:40:48.754Z,998.32
2022-11-24T00:41:50.946Z,998.35
2022-11-24T00:42:49.338Z,998.37
2022-11-24T00:43:47.954Z,998.35
2022-11-24T00:44:50.127Z,998.44
2022-11-24T00:45:51.512Z,998.37
2022-11-24T00:46:47.758Z,998.36
2022-11-24T00:47:47.857Z,998.36
2022-11-24T00:48:47.645Z,998.41
2022-11-24T00:49:47.817Z,998.37
2022-11-24T00:50:47.740Z,998.34
2022-11-24T00:51:47.948Z,998.32
2022-11-24T00:52:47.824Z,998.32
2022-11-24T00:53:48.178Z,998.35
2022-11-24T00:54:47.745Z,998.32
2022-11-24T00:55:47.765Z,998.34
2022-11-24T00:56:48.578Z,998.34
2022-11-24T00:59:53.450Z,998.36
2022-11-24T01:00:53.156Z,998.39
2022-11-24T01:01:53.059Z,998.43
2022-11-24T01:02:53.283Z,998.39
2022-11-24T01:03:53.243Z,998.37
2022-11-24T01:04:52.979Z,998.36
2022-11-24T01:06:23.747Z,998.41
2022-11-24T01:06:53.274Z,998.42
2022-11-24T01:07:52.629Z,998.43
2022-11-24T01:08:52.560Z,998.47
2022-11-24T01:09:53.008Z,998.44
2022-11-24T01:10:52.922Z,998.48
2022-11-24T01:11:52.719Z,998.44
2022-11-24T01:12:54.632Z,998.44
2022-11-24T01:13:53.157Z,998.46
2022-11-24T01:14:52.964Z,998.49
2022-11-24T01:15:52.900Z,998.49
2022-11-24T01:16:53.551Z,998.48
2022-11-24T01:17:52.749Z,998.44
2022-11-24T01:18:52.898Z,998.53
2022-11-24T01:19:52.896Z,998.50
2022-11-24T01:20:53.898Z,998.49
2022-11-24T01:21:52.597Z,998.49
2022-11-24T01:22:52.883Z,998.55
2022-11-24T01:23:53.107Z,998.55
2022-11-24T01:24:52.681Z,998.53
2022-11-24T01:25:54.875Z,998.58
2022-11-24T01:26:52.636Z,998.57
2022-11-24T01:27:53.604Z,998.61
2022-11-24T01:28:52.507Z,998.55
2022-11-24T01:30:07.485Z,998.58
2022-11-24T01:33:06.655Z,998.58
2022-11-24T01:34:07.010Z,998.58
2022-11-24T01:35:06.364Z,998.62
2022-11-24T01:36:06.184Z,998.62
2022-11-24T01:37:06.910Z,998.62
2022-11-24T01:38:06.263Z,998.64
2022-11-24T01:39:06.443Z,998.64
2022-11-24T01:40:06.891Z,998.67
2022-11-24T01:41:06.154Z,998.66
2022-11-24T01:42:06.860Z,998.66
2022-11-24T01:43:05.918Z,998.68
2022-11-24T01:44:05.936Z,998.67
2022-11-24T01:45:06.250Z,998.67
2022-11-24T01:46:06.508Z,998.71
2022-11-24T01:47:05.924Z,998.73
2022-11-24T01:48:07.555Z,998.71
2022-11-24T01:49:06.395Z,998.76
2022-11-24T01:50:05.952Z,998.71
2022-11-24T01:51:06.091Z,998.73
2022-11-24T01:52:05.845Z,998.75
2022-11-24T01:53:06.007Z,998.78
2022-11-24T01:54:07.117Z,998.77
2022-11-24T01:55:05.954Z,998.79
2022-11-24T01:56:05.842Z,998.84
2022-11-24T01:57:06.146Z,998.82
2022-11-24T01:58:05.928Z,998.79
2022-11-24T01:59:06.128Z,998.83
2022-11-24T02:00:05.990Z,998.81
2022-11-24T02:01:08.706Z,998.82
2022-11-24T02:02:05.908Z,998.82
2022-11-24T02:03:06.000Z,998.82
2022-11-24T02:04:05.756Z,998.79
2022-11-24T02:05:06.153Z,998.77
2022-11-24T02:06:05.789Z,998.74
2022-11-24T02:07:06.146Z,998.74
2022-11-24T02:08:05.648Z,998.74
2022-11-24T02:09:06.428Z,998.75
2022-11-24T02:10:05.761Z,998.76
2022-11-24T02:11:05.750Z,998.78
2022-11-24T02:12:06.020Z,998.80
2022-11-24T02:13:05.581Z,998.82
2022-11-24T02:14:05.807Z,998.88
2022-11-24T02:15:05.691Z,998.91
2022-11-24T02:16:05.640Z,998.90
2022-11-24T02:17:06.098Z,998.91
2022-11-24T02:18:05.667Z,998.94
2022-11-24T02:19:05.722Z,998.94
2022-11-24T02:20:05.717Z,998.97
2022-11-24T02:21:06.016Z,998.96
2022-11-24T02:22:05.634Z,998.98
2022-11-24T02:23:05.667Z,999.01
2022-11-24T02:24:05.637Z,998.98
2022-11-24T02:25:05.525Z,999.00
2022-11-24T02:26:05.592Z,999.03
2022-11-24T02:27:06.030Z,999.00
2022-11-24T02:28:06.093Z,999.02
2022-11-24T02:29:05.492Z,999.06
2022-11-24T02:30:05.338Z,999.00
2022-11-24T02:31:05.479Z,999.03
2022-11-24T02:32:06.335Z,999.07
2022-11-24T02:33:05.528Z,999.09
2022-11-24T02:34:05.956Z,999.07
2022-11-24T02:35:05.277Z,999.08
2022-11-24T02:36:05.369Z,999.11
2022-11-24T02:37:05.539Z,999.09
2022-11-24T02:38:05.464Z,999.02
2022-11-24T02:39:05.389Z,999.11
2022-11-24T02:40:05.365Z,999.09
2022-11-24T02:41:06.915Z,999.17
2022-11-24T02:42:05.758Z,999.13
2022-11-24T02:43:05.489Z,999.13
2022-11-24T02:44:05.214Z,999.11
2022-11-24T02:45:05.388Z,999.12
2022-11-24T02:46:05.311Z,999.15
2022-11-24T02:50:33.421Z,999.17
2022-11-24T02:51:31.919Z,999.21
2022-11-24T02:56:49.661Z,999.18
2022-11-24T02:57:49.520Z,999.19
2022-11-24T02:58:49.470Z,999.21
2022-11-24T02:59:49.004Z,999.24
2022-11-24T03:00:49.090Z,999.23
2022-11-24T03:01:49.311Z,999.29
2022-11-24T03:02:49.111Z,999.28
2022-11-24T03:03:49.092Z,999.28
2022-11-24T03:04:49.092Z,999.27
2022-11-24T03:05:49.144Z,999.34
2022-11-24T03:06:49.070Z,999.31
2022-11-24T03:07:49.258Z,999.29
2022-11-24T03:08:49.052Z,999.29
2022-11-24T03:09:48.943Z,999.34
2022-11-24T03:10:49.187Z,999.35
2022-11-24T03:11:48.998Z,999.32
2022-11-24T03:12:49.518Z,999.36
2022-11-24T03:13:49.497Z,999.36
2022-11-24T03:14:49.355Z,999.38
2022-11-24T03:15:49.181Z,999.35
2022-11-24T03:16:49.106Z,999.38
2022-11-24T03:17:48.950Z,999.38
2022-11-24T03:18:48.812Z,999.40
2022-11-24T03:19:49.986Z,999.40
2022-11-24T03:20:48.986Z,999.37
2022-11-24T03:21:48.925Z,999.40
2022-11-24T03:22:49.461Z,999.42
2022-11-24T03:23:49.182Z,999.41
2022-11-24T03:24:48.936Z,999.44
2022-11-24T03:25:48.871Z,999.45
2022-11-24T03:26:48.809Z,999.45
2022-11-24T03:27:48.822Z,999.45
2022-11-24T03:28:48.992Z,999.47
2022-11-24T03:29:48.877Z,999.45
2022-11-24T03:30:49.063Z,999.48
2022-11-24T03:31:49.429Z,999.48
2022-11-24T03:32:48.712Z,999.47
2022-11-24T03:33:49.623Z,999.46
2022-11-24T03:34:49.527Z,999.46
2022-11-24T03:35:48.544Z,999.51
2022-11-24T03:36:48.604Z,999.53
2022-11-24T03:37:49.379Z,999.52
2022-11-24T03:38:49.072Z,999.53
2022-11-24T03:39:49.221Z,999.54
2022-11-24T03:40:48.564Z,999.56
2022-11-24T03:41:48.447Z,999.63
2022-11-24T03:42:48.669Z,999.60
2022-11-24T03:43:49.237Z,999.61
2022-11-24T03:44:48.802Z,999.61
2022-11-24T03:45:48.857Z,999.64
2022-11-24T03:46:48.647Z,999.67
2022-11-24T03:47:48.928Z,999.66
2022-11-24T03:48:48.939Z,999.64
2022-11-24T03:49:48.745Z,999.67
2022-11-24T03:50:49.513Z,999.67
2022-11-24T03:51:49.046Z,999.67
2022-11-24T03:52:49.235Z,999.68
2022-11-24T03:53:48.701Z,999.70
2022-11-24T03:54:48.625Z,999.71
2022-11-24T03:55:48.415Z,999.71
2022-11-24T03:56:48.954Z,999.68
2022-11-24T03:57:48.333Z,999.72
2022-11-24T03:58:49.038Z,999.71
2022-11-24T03:59:48.587Z,999.74
2022-11-24T04:00:53.752Z,999.70
2022-11-24T04:01:48.479Z,999.69
2022-11-24T04:02:48.404Z,999.69
2022-11-24T04:03:48.275Z,999.74
2022-11-24T04:04:49.798Z,999.76
2022-11-24T04:05:48.352Z,999.76
2022-11-24T04:06:48.448Z,999.84
2022-11-24T04:07:49.046Z,999.84
2022-11-24T04:08:48.648Z,999.77
2022-11-24T04:09:48.479Z,999.83
2022-11-24T04:10:48.535Z,999.81
2022-11-24T04:11:49.011Z,999.79
2022-11-24T04:12:48.411Z,999.77
2022-11-24T04:13:48.282Z,999.85
2022-11-24T04:14:48.555Z,999.80
2022-11-24T04:15:48.415Z,999.77
2022-11-24T04:16:48.488Z,999.78
2022-11-24T04:17:48.252Z,999.74
2022-11-24T04:18:48.870Z,999.77
2022-11-24T04:19:48.335Z,999.76
2022-11-24T04:20:47.932Z,999.80
2022-11-24T04:21:48.695Z,999.76
2022-11-24T04:22:48.739Z,999.81
2022-11-24T04:23:48.581Z,999.87
2022-11-24T04:24:48.501Z,999.87
2022-11-24T04:25:47.841Z,999.91
2022-11-24T04:26:48.685Z,999.92
2022-11-24T04:27:48.239Z,999.95
2022-11-24T04:28:48.203Z,999.96
2022-11-24T04:29:48.985Z,999.95
2022-11-24T04:30:48.349Z,999.98
2022-11-24T04:31:48.320Z,999.97
2022-11-24T04:32:48.044Z,999.97
2022-11-24T04:33:48.178Z,999.96
2022-11-24T04:34:48.069Z,999.94
2022-11-24T04:35:48.384Z,999.98
2022-11-24T04:36:48.121Z,999.96
2022-11-24T04:37:48.634Z,999.96
2022-11-24T04:39:24.477Z,1000.01
2022-11-24T04:39:48.811Z,1000.08
2022-11-24T04:40:48.654Z,1000.06
2022-11-24T04:41:48.040Z,1000.04
2022-11-24T04:42:48.244Z,1000.11
2022-11-24T04:43:47.943Z,1000.08
2022-11-24T04:44:49.140Z,1000.13
2022-11-24T04:45:50.615Z,1000.12
2022-11-24T04:46:47.928Z,1000.17
2022-11-24T04:47:47.524Z,1000.16
2022-11-24T04:48:47.964Z,1000.18
2022-11-24T04:49:47.894Z,1000.25
2022-11-24T04:50:48.311Z,1000.23
2022-11-24T04:51:47.939Z,1000.21
2022-11-24T04:52:49.802Z,1000.25
2022-11-24T04:53:48.698Z,1000.20
2022-11-24T04:54:48.167Z,1000.22
2022-11-24T04:55:48.560Z,1000.23
2022-11-24T04:56:48.341Z,1000.20
2022-11-24T04:57:47.567Z,1000.24
2022-11-24T04:58:49.726Z,1000.21
2022-11-24T04:59:48.134Z,1000.20
2022-11-24T05:00:48.150Z,1000.21
2022-11-24T05:01:47.826Z,1000.21
2022-11-24T05:02:48.088Z,1000.22
2022-11-24T05:03:48.351Z,1000.22
2022-11-24T05:04:47.444Z,1000.22
2022-11-24T05:05:47.566Z,1000.23
2022-11-24T05:06:48.428Z,1000.25
2022-11-24T05:07:48.392Z,1000.27
2022-11-24T05:08:48.635Z,1000.30
2022-11-24T05:09:58.999Z,1000.32
2022-11-24T05:10:48.711Z,1000.31
2022-11-24T05:11:47.730Z,1000.32
2022-11-24T05:12:51.243Z,1000.31
2022-11-24T05:13:47.322Z,1000.36
2022-11-24T05:14:47.344Z,1000.34
2022-11-24T05:15:48.239Z,1000.37
2022-11-24T05:16:48.085Z,1000.39
2022-11-24T05:17:47.725Z,1000.39
2022-11-24T05:18:48.194Z,1000.41
2022-11-24T05:19:47.547Z,1000.40
2022-11-24T05:20:47.159Z,1000.45
2022-11-24T05:21:47.741Z,1000.48
2022-11-24T05:22:47.662Z,1000.45
2022-11-24T05:23:47.617Z,1000.53
2022-11-24T05:24:47.248Z,1000.54
2022-11-24T05:25:47.918Z,1000.53
2022-11-24T05:26:47.235Z,1000.57
2022-11-24T05:27:47.307Z,1000.55
2022-11-24T05:28:48.117Z,1000.59
2022-11-24T05:29:47.484Z,1000.57
2022-11-24T05:30:47.142Z,1000.66
2022-11-24T05:31:47.115Z,1000.57
2022-11-24T05:32:47.448Z,1000.63
2022-11-24T05:33:47.426Z,1000.65
2022-11-24T05:34:47.668Z,1000.69
2022-11-24T05:35:47.013Z,1000.68
2022-11-24T05:36:47.237Z,1000.64
2022-11-24T05:37:47.358Z,1000.64
2022-11-24T05:38:47.884Z,1000.69
2022-11-24T05:39:47.027Z,1000.69
2022-11-24T05:40:46.977Z,1000.71
2022-11-24T05:41:47.130Z,1000.69
2022-11-24T05:42:48.437Z,1000.68
2022-11-24T05:43:47.430Z,1000.66
2022-11-24T05:44:48.888Z,1000.68
2022-11-24T05:45:47.937Z,1000.72
2022-11-24T05:46:47.011Z,1000.78
2022-11-24T05:47:47.162Z,1000.72
2022-11-24T05:48:47.268Z,1000.71
2022-11-24T05:49:47.124Z,1000.75
2022-11-24T05:50:46.957Z,1000.82
2022-11-24T05:51:46.974Z,1000.81
2022-11-24T05:52:47.010Z,1000.84
2022-11-24T05:53:47.924Z,1000.88
2022-11-24T05:54:46.787Z,1000.87
2022-11-24T05:55:46.707Z,1000.88
2022-11-24T05:56:46.679Z,1000.86
2022-11-24T05:57:46.729Z,1000.88
2022-11-24T05:58:46.655Z,1000.89
2022-11-24T05:59:46.570Z,1000.92
2022-11-24T06:00:46.649Z,1000.93
2022-11-24T06:01:46.738Z,1000.90
2022-11-24T06:02:46.795Z,1000.96
2022-11-24T06:03:46.709Z,1000.93
2022-11-24T06:04:46.548Z,1000.92
2022-11-24T06:05:46.585Z,1000.98
2022-11-24T06:06:46.549Z,1000.99
2022-11-24T06:07:46.596Z,1000.98
2022-11-24T06:08:46.598Z,1000.98
2022-11-24T06:09:46.483Z,1000.99
2022-11-24T06:10:46.480Z,1000.99
2022-11-24T06:11:46.448Z,1001.00
2022-11-24T06:12:46.503Z,1001.06
2022-11-24T06:13:46.460Z,1001.05
2022-11-24T06:14:46.445Z,1001.09
2022-11-24T06:15:46.517Z,1001.05
2022-11-24T06:16:46.449Z,1001.07
2022-11-24T06:17:46.372Z,1001.09
2022-11-24T06:18:48.024Z,1001.13
2022-11-24T06:34:23.084Z,1001.38
2022-11-24T06:35:17.068Z,1001.32
2022-11-24T06:36:38.650Z,1001.30
2022-11-24T06:37:14.846Z,1001.38
2022-11-24T06:38:20.127Z,1001.34
2022-11-24T06:39:16.008Z,1001.33
2022-11-24T06:40:13.994Z,1001.33
2022-11-24T06:41:13.999Z,1001.38
2022-11-24T06:42:14.157Z,1001.43
2022-11-24T06:43:14.816Z,1001.35
2022-11-24T06:44:13.958Z,1001.40
2022-11-24T06:45:13.778Z,1001.39
2022-11-24T06:46:16.271Z,1001.41
2022-11-24T06:47:13.686Z,1001.41
2022-11-24T06:48:13.737Z,1001.41
2022-11-24T06:49:13.705Z,1001.46
2022-11-24T06:50:13.686Z,1001.44
2022-11-24T06:51:13.624Z,1001.47
2022-11-24T06:52:13.694Z,1001.47
2022-11-24T06:53:13.598Z,1001.48
2022-11-24T06:54:13.773Z,1001.48
2022-11-24T06:55:13.713Z,1001.46
2022-11-24T06:56:16.776Z,1001.46
2022-11-24T06:57:13.724Z,1001.51
2022-11-24T06:58:13.562Z,1001.51
2022-11-24T06:59:13.573Z,1001.52
2022-11-24T07:00:13.630Z,1001.52
2022-11-24T07:01:14.026Z,1001.53
2022-11-24T07:02:13.450Z,1001.53
2022-11-24T07:03:13.915Z,1001.60
2022-11-24T07:04:13.569Z,1001.57
2022-11-24T07:05:13.525Z,1001.60
2022-11-24T07:06:13.470Z,1001.61
2022-11-24T07:07:13.533Z,1001.61
2022-11-24T07:08:17.772Z,1001.61
2022-11-24T07:09:13.390Z,1001.62
2022-11-24T07:10:13.364Z,1001.67
2022-11-24T07:11:13.733Z,1001.65
2022-11-24T07:12:13.303Z,1001.69
2022-11-24T07:13:13.402Z,1001.73
2022-11-24T07:14:13.584Z,1001.71
2022-11-24T07:15:13.422Z,1001.72
2022-11-24T07:16:13.450Z,1001.78
2022-11-24T07:17:13.597Z,1001.80
2022-11-24T07:18:13.893Z,1001.74
2022-11-24T07:19:13.791Z,1001.74
2022-11-24T07:20:13.933Z,1001.77
2022-11-24T07:21:13.523Z,1001.77
2022-11-24T07:22:14.281Z,1001.80
2022-11-24T07:23:13.318Z,1001.82
2022-11-24T07:24:13.349Z,1001.83
2022-11-24T07:25:13.344Z,1001.78
2022-11-24T07:26:13.127Z,1001.79
2022-11-24T07:27:13.414Z,1001.80
2022-11-24T07:28:13.480Z,1001.81
2022-11-24T07:29:13.221Z,1001.81
2022-11-24T07:30:13.068Z,1001.78
2022-11-24T07:31:13.257Z,1001.80
2022-11-24T07:32:13.229Z,1001.79
2022-11-24T07:33:13.122Z,1001.82
2022-11-24T07:34:13.078Z,1001.85
2022-11-24T07:35:13.143Z,1001.85
2022-11-24T07:36:13.073Z,1001.93
2022-11-24T07:37:13.738Z,1001.90
2022-11-24T07:38:13.725Z,1001.94
2022-11-24T07:39:13.199Z,1001.99
2022-11-24T07:40:13.335Z,1001.98
2022-11-24T07:41:13.150Z,1001.97
2022-11-24T07:42:13.660Z,1002.00
2022-11-24T07:43:18.632Z,1002.02
2022-11-24T07:44:17.194Z,1002.03
2022-11-24T07:45:14.307Z,1002.07
2022-11-24T07:46:13.531Z,1002.14
2022-11-24T07:47:13.116Z,1002.08
2022-11-24T07:48:13.468Z,1002.08
2022-11-24T07:49:13.430Z,1002.06
2022-11-24T07:50:13.097Z,1002.10
2022-11-24T07:51:12.906Z,1002.13
2022-11-24T07:54:06.694Z,1002.26
2022-11-24T07:55:03.672Z,1002.25
2022-11-24T07:56:07.022Z,1002.28
2022-11-24T07:57:05.151Z,1002.27
2022-11-24T08:01:15.154Z,1002.34
2022-11-24T08:08:43.184Z,1002.47
2022-11-24T08:09:32.922Z,1002.44
2022-11-24T08:10:29.465Z,1002.50
2022-11-24T08:11:31.852Z,1002.53
2022-11-24T08:12:29.815Z,1002.51
2022-11-24T08:13:29.677Z,1002.47
2022-11-24T08:14:30.882Z,1002.53
2022-11-24T08:15:30.170Z,1002.49
2022-11-24T08:16:29.944Z,1002.50
2022-11-24T08:17:33.095Z,1002.56
2022-11-24T08:18:38.892Z,1002.50
2022-11-24T08:19:31.323Z,1002.49
2022-11-24T08:20:30.446Z,1002.45
2022-11-24T08:21:29.906Z,1002.49
2022-11-24T08:22:32.806Z,1002.50
2022-11-24T08:26:08.088Z,1002.56
2022-11-24T08:34:56.340Z,1002.67
2022-11-24T08:35:23.072Z,1002.70
2022-11-24T08:36:41.754Z,1002.72
2022-11-24T08:37:24.303Z,1002.72
2022-11-24T08:38:20.619Z,1002.70
2022-11-24T08:39:24.843Z,1002.71
2022-11-24T08:43:12.853Z,1002.75
2022-11-24T08:54:25.415Z,1002.97
2022-11-24T08:55:41.011Z,1002.99
2022-11-24T08:58:44.209Z,1002.97
2022-11-24T09:17:37.869Z,1003.30
2022-11-24T09:24:49.619Z,1003.45
2022-11-24T09:25:49.857Z,1003.40
2022-11-24T09:31:26.111Z,1003.53
2022-11-24T09:35:03.959Z,1003.58
2022-11-24T09:41:19.420Z,1003.76
2022-11-24T09:43:50.404Z,1003.72
2022-11-24T09:51:11.957Z,1003.83
2022-11-24T09:53:57.759Z,1003.84
2022-11-24T10:28:45.409Z,1004.31
2022-11-24T10:32:36.728Z,1004.25
2022-11-24T10:41:24.488Z,1004.22
2022-11-24T10:46:05.553Z,1004.33
2022-11-24T10:48:27.433Z,1004.36
2022-11-24T10:49:56.441Z,1004.39
2022-11-24T10:50:27.994Z,1004.41
2022-11-24T10:51:37.223Z,1004.42
2022-11-24T11:14:59.314Z,1004.67
2022-11-24T11:15:58.077Z,1004.60
2022-11-24T11:18:56.268Z,1004.62
2022-11-24T11:34:02.830Z,1004.74
2022-11-24T11:35:54.383Z,1004.78
2022-11-24T11:41:39.830Z,1004.86
2022-11-24T11:44:43.534Z,1004.83
2022-11-24T11:53:17.326Z,1004.82
2022-11-24T12:05:57.934Z,1004.96
2022-11-24T12:08:14.593Z,1004.99
2022-11-24T12:09:21.954Z,1005.00
2022-11-24T12:25:44.559Z,1005.17
2022-11-24T12:29:16.625Z,1005.20
2022-11-24T12:33:47.558Z,1005.22
2022-11-24T12:34:22.003Z,1005.19
